Girard, Ohio
Current Conditions -  °F | °C
As of 7:51 PM on Friday 24 Oct 2014 (Local Time) from KYNG Reporting Station
Scattered Clouds Scattered Clouds  
Wind Chill: 52°   Ceiling: Unl
Heat Index: 52°   Visibility: 10mi
Dew Point: 38°   Wind: 3mph
Humidity: 59%   Direction: 230°SW
Pressure: 30"   Gusts: NA
Location:  41.15°N, 80.7°W
Report Text: KYNG 242351Z 23003KT 10SM FEW080 SCT250 11/03 A3000 RMK AO2 SLP164 T01110033 10161 20100 51005 $
Loading
Personal Weather Stations






























Interactive Weather Map
Tropical Storm Tracking
New forecast layout! Learn more

10-Day Weather Forecast

Advertisements
Track Severe Weather on mobile